sensor_id;sensor_type;location;lat;lon;timestamp;P1;durP1;ratioP1;P2;durP2;ratioP2
62258;SDS011;48241;48.824;10.102;2023-04-03T00:01:30;7.10;;;2.92;;
62258;SDS011;48241;48.824;10.102;2023-04-03T00:03:57;4.78;;;2.90;;
62258;SDS011;48241;48.824;10.102;2023-04-03T00:06:22;4.13;;;2.65;;
62258;SDS011;48241;48.824;10.102;2023-04-03T00:08:49;4.38;;;2.80;;
62258;SDS011;48241;48.824;10.102;2023-04-03T00:11:15;3.97;;;2.75;;
62258;SDS011;48241;48.824;10.102;2023-04-03T00:13:42;5.35;;;2.47;;
62258;SDS011;48241;48.824;10.102;2023-04-03T00:16:08;3.85;;;2.88;;
62258;SDS011;48241;48.824;10.102;2023-04-03T00:18:35;5.13;;;2.67;;
62258;SDS011;48241;48.824;10.102;2023-04-03T00:21:01;5.72;;;2.45;;
62258;SDS011;48241;48.824;10.102;2023-04-03T00:23:26;3.55;;;2.78;;
62258;SDS011;48241;48.824;10.102;2023-04-03T00:25:52;3.97;;;2.58;;
62258;SDS011;48241;48.824;10.102;2023-04-03T00:28:18;3.35;;;2.60;;
62258;SDS011;48241;48.824;10.102;2023-04-03T00:30:44;4.85;;;2.70;;
62258;SDS011;48241;48.824;10.102;2023-04-03T00:33:13;3.72;;;2.45;;
62258;SDS011;48241;48.824;10.102;2023-04-03T00:35:39;3.63;;;2.80;;
62258;SDS011;48241;48.824;10.102;2023-04-03T00:38:05;3.67;;;2.63;;
62258;SDS011;48241;48.824;10.102;2023-04-03T00:40:34;4.70;;;2.88;;
62258;SDS011;48241;48.824;10.102;2023-04-03T00:43:02;3.92;;;2.70;;
62258;SDS011;48241;48.824;10.102;2023-04-03T00:45:42;6.43;;;2.42;;
62258;SDS011;48241;48.824;10.102;2023-04-03T00:48:11;3.95;;;2.70;;
62258;SDS011;48241;48.824;10.102;2023-04-03T00:50:46;4.97;;;2.50;;
62258;SDS011;48241;48.824;10.102;2023-04-03T00:53:17;5.13;;;3.00;;
62258;SDS011;48241;48.824;10.102;2023-04-03T00:55:46;3.67;;;2.67;;
62258;SDS011;48241;48.824;10.102;2023-04-03T00:58:14;3.45;;;2.70;;
62258;SDS011;48241;48.824;10.102;2023-04-03T01:00:44;4.13;;;2.60;;
62258;SDS011;48241;48.824;10.102;2023-04-03T01:03:16;3.65;;;2.53;;
62258;SDS011;48241;48.824;10.102;2023-04-03T01:05:42;4.72;;;2.63;;
62258;SDS011;48241;48.824;10.102;2023-04-03T01:08:07;3.88;;;2.50;;
62258;SDS011;48241;48.824;10.102;2023-04-03T01:10:33;3.75;;;2.55;;
62258;SDS011;48241;48.824;10.102;2023-04-03T01:12:58;3.00;;;2.70;;
62258;SDS011;48241;48.824;10.102;2023-04-03T01:15:26;4.40;;;2.70;;
62258;SDS011;48241;48.824;10.102;2023-04-03T01:17:56;5.18;;;2.33;;
62258;SDS011;48241;48.824;10.102;2023-04-03T01:25:43;3.88;;;2.35;;
62258;SDS011;48241;48.824;10.102;2023-04-03T01:28:35;4.13;;;2.60;;
62258;SDS011;48241;48.824;10.102;2023-04-03T01:33:38;3.28;;;2.50;;
62258;SDS011;48241;48.824;10.102;2023-04-03T01:36:04;3.33;;;2.30;;
62258;SDS011;48241;48.824;10.102;2023-04-03T01:38:31;4.07;;;2.45;;
62258;SDS011;48241;48.824;10.102;2023-04-03T01:40:56;3.42;;;2.28;;
62258;SDS011;48241;48.824;10.102;2023-04-03T07:46:20;4.53;;;2.33;;
62258;SDS011;48241;48.824;10.102;2023-04-03T07:48:45;4.82;;;2.50;;
62258;SDS011;48241;48.824;10.102;2023-04-03T07:51:11;3.90;;;2.38;;
62258;SDS011;48241;48.824;10.102;2023-04-03T07:53:39;6.40;;;2.80;;
62258;SDS011;48241;48.824;10.102;2023-04-03T07:56:06;4.35;;;2.28;;
62258;SDS011;48241;48.824;10.102;2023-04-03T07:58:32;6.78;;;2.72;;
62258;SDS011;48241;48.824;10.102;2023-04-03T08:00:57;4.03;;;2.28;;
62258;SDS011;48241;48.824;10.102;2023-04-03T08:03:23;5.45;;;2.70;;
62258;SDS011;48241;48.824;10.102;2023-04-03T08:05:49;4.20;;;2.60;;
62258;SDS011;48241;48.824;10.102;2023-04-03T08:08:17;3.78;;;2.35;;
62258;SDS011;48241;48.824;10.102;2023-04-03T08:10:47;5.53;;;2.60;;
62258;SDS011;48241;48.824;10.102;2023-04-03T08:13:16;3.50;;;2.20;;
62258;SDS011;48241;48.824;10.102;2023-04-03T08:15:42;5.70;;;2.28;;
62258;SDS011;48241;48.824;10.102;2023-04-03T08:18:08;5.35;;;2.42;;
62258;SDS011;48241;48.824;10.102;2023-04-03T08:20:34;4.57;;;2.22;;
62258;SDS011;48241;48.824;10.102;2023-04-03T08:23:00;4.38;;;2.47;;
62258;SDS011;48241;48.824;10.102;2023-04-03T08:25:25;4.03;;;2.35;;
62258;SDS011;48241;48.824;10.102;2023-04-03T08:27:51;4.88;;;2.38;;
62258;SDS011;48241;48.824;10.102;2023-04-03T08:30:17;5.35;;;2.33;;
62258;SDS011;48241;48.824;10.102;2023-04-03T08:32:42;4.95;;;2.35;;
62258;SDS011;48241;48.824;10.102;2023-04-03T08:35:09;4.80;;;2.40;;
62258;SDS011;48241;48.824;10.102;2023-04-03T08:37:40;3.45;;;2.28;;
62258;SDS011;48241;48.824;10.102;2023-04-03T08:40:10;4.15;;;2.33;;
62258;SDS011;48241;48.824;10.102;2023-04-03T08:45:45;5.13;;;2.20;;
62258;SDS011;48241;48.824;10.102;2023-04-03T08:48:24;4.10;;;2.20;;
62258;SDS011;48241;48.824;10.102;2023-04-03T08:51:04;3.15;;;2.00;;
62258;SDS011;48241;48.824;10.102;2023-04-03T08:53:55;5.18;;;2.30;;
62258;SDS011;48241;48.824;10.102;2023-04-03T08:56:28;6.28;;;2.25;;
62258;SDS011;48241;48.824;10.102;2023-04-03T08:58:56;5.93;;;2.47;;
62258;SDS011;48241;48.824;10.102;2023-04-03T09:01:34;2.53;;;1.83;;
62258;SDS011;48241;48.824;10.102;2023-04-03T09:04:03;4.68;;;2.45;;
62258;SDS011;48241;48.824;10.102;2023-04-03T09:09:06;3.83;;;1.92;;
62258;SDS011;48241;48.824;10.102;2023-04-03T09:12:00;3.85;;;2.15;;
62258;SDS011;48241;48.824;10.102;2023-04-03T09:14:50;6.55;;;2.08;;
62258;SDS011;48241;48.824;10.102;2023-04-03T09:17:30;2.50;;;1.80;;
62258;SDS011;48241;48.824;10.102;2023-04-03T09:20:23;4.68;;;1.88;;
62258;SDS011;48241;48.824;10.102;2023-04-03T09:26:14;1.98;;;1.33;;
62258;SDS011;48241;48.824;10.102;2023-04-03T09:28:48;1.73;;;1.58;;
62258;SDS011;48241;48.824;10.102;2023-04-03T09:33:39;2.55;;;1.70;;
62258;SDS011;48241;48.824;10.102;2023-04-03T09:36:05;3.75;;;1.90;;
62258;SDS011;48241;48.824;10.102;2023-04-03T09:38:32;3.10;;;1.88;;
62258;SDS011;48241;48.824;10.102;2023-04-03T09:41:04;5.47;;;2.30;;
62258;SDS011;48241;48.824;10.102;2023-04-03T09:43:42;2.63;;;1.55;;
62258;SDS011;48241;48.824;10.102;2023-04-03T09:48:58;2.30;;;1.63;;
62258;SDS011;48241;48.824;10.102;2023-04-03T09:51:28;4.07;;;2.30;;
62258;SDS011;48241;48.824;10.102;2023-04-03T09:53:56;3.75;;;2.00;;
62258;SDS011;48241;48.824;10.102;2023-04-03T09:56:27;2.50;;;1.42;;
62258;SDS011;48241;48.824;10.102;2023-04-03T10:01:39;3.60;;;1.85;;
62258;SDS011;48241;48.824;10.102;2023-04-03T10:04:09;4.38;;;1.65;;
62258;SDS011;48241;48.824;10.102;2023-04-03T10:06:40;3.22;;;1.55;;
62258;SDS011;48241;48.824;10.102;2023-04-03T10:12:02;4.57;;;1.60;;
62258;SDS011;48241;48.824;10.102;2023-04-03T10:14:34;2.58;;;1.60;;
62258;SDS011;48241;48.824;10.102;2023-04-03T10:17:03;3.03;;;1.80;;
62258;SDS011;48241;48.824;10.102;2023-04-03T10:20:08;2.38;;;1.52;;
62258;SDS011;48241;48.824;10.102;2023-04-03T10:23:48;2.60;;;1.40;;
62258;SDS011;48241;48.824;10.102;2023-04-03T10:31:13;2.40;;;1.65;;
62258;SDS011;48241;48.824;10.102;2023-04-03T10:39:25;2.95;;;1.63;;
62258;SDS011;48241;48.824;10.102;2023-04-03T10:42:02;1.92;;;1.42;;
62258;SDS011;48241;48.824;10.102;2023-04-03T10:44:40;2.55;;;1.05;;
62258;SDS011;48241;48.824;10.102;2023-04-03T10:47:30;3.05;;;1.42;;
62258;SDS011;48241;48.824;10.102;2023-04-03T10:52:51;3.65;;;1.77;;
62258;SDS011;48241;48.824;10.102;2023-04-03T10:57:58;2.50;;;1.40;;
62258;SDS011;48241;48.824;10.102;2023-04-03T11:00:30;3.15;;;1.58;;
62258;SDS011;48241;48.824;10.102;2023-04-03T11:05:59;3.40;;;1.48;;
62258;SDS011;48241;48.824;10.102;2023-04-03T11:08:28;4.35;;;1.58;;
62258;SDS011;48241;48.824;10.102;2023-04-03T11:11:04;3.60;;;1.48;;
62258;SDS011;48241;48.824;10.102;2023-04-03T11:13:46;2.20;;;1.20;;
62258;SDS011;48241;48.824;10.102;2023-04-03T11:16:27;2.90;;;1.27;;
62258;SDS011;48241;48.824;10.102;2023-04-03T11:19:16;2.70;;;1.33;;
62258;SDS011;48241;48.824;10.102;2023-04-03T11:21:56;2.60;;;1.55;;
62258;SDS011;48241;48.824;10.102;2023-04-03T11:24:31;2.55;;;1.30;;
62258;SDS011;48241;48.824;10.102;2023-04-03T11:26:59;2.53;;;1.30;;
62258;SDS011;48241;48.824;10.102;2023-04-03T11:29:35;2.92;;;1.45;;
62258;SDS011;48241;48.824;10.102;2023-04-03T11:34:59;2.10;;;1.60;;
62258;SDS011;48241;48.824;10.102;2023-04-03T11:37:31;2.85;;;1.30;;
62258;SDS011;48241;48.824;10.102;2023-04-03T11:40:08;4.72;;;1.70;;
62258;SDS011;48241;48.824;10.102;2023-04-03T11:42:52;3.65;;;1.85;;
62258;SDS011;48241;48.824;10.102;2023-04-03T11:47:57;3.95;;;1.60;;
62258;SDS011;48241;48.824;10.102;2023-04-03T11:50:30;3.47;;;1.80;;
62258;SDS011;48241;48.824;10.102;2023-04-03T11:52:57;2.83;;;1.63;;
62258;SDS011;48241;48.824;10.102;2023-04-03T12:03:29;2.45;;;1.70;;
62258;SDS011;48241;48.824;10.102;2023-04-03T12:05:58;3.45;;;1.10;;
62258;SDS011;48241;48.824;10.102;2023-04-03T12:08:46;2.00;;;1.35;;
62258;SDS011;48241;48.824;10.102;2023-04-03T12:11:24;3.38;;;1.52;;
62258;SDS011;48241;48.824;10.102;2023-04-03T12:19:24;3.15;;;1.48;;
62258;SDS011;48241;48.824;10.102;2023-04-03T12:24:24;1.95;;;1.60;;
62258;SDS011;48241;48.824;10.102;2023-04-03T12:26:51;4.90;;;2.45;;
62258;SDS011;48241;48.824;10.102;2023-04-03T12:29:52;5.30;;;2.00;;
62258;SDS011;48241;48.824;10.102;2023-04-03T12:35:35;2.75;;;1.58;;
62258;SDS011;48241;48.824;10.102;2023-04-03T12:38:16;3.42;;;1.80;;
62258;SDS011;48241;48.824;10.102;2023-04-03T12:44:09;3.72;;;1.80;;
62258;SDS011;48241;48.824;10.102;2023-04-03T12:46:48;3.13;;;1.75;;
62258;SDS011;48241;48.824;10.102;2023-04-03T12:52:21;4.60;;;1.65;;
62258;SDS011;48241;48.824;10.102;2023-04-03T12:54:55;2.85;;;1.80;;
62258;SDS011;48241;48.824;10.102;2023-04-03T12:57:25;3.00;;;1.90;;
62258;SDS011;48241;48.824;10.102;2023-04-03T12:59:52;3.80;;;1.55;;
62258;SDS011;48241;48.824;10.102;2023-04-03T13:02:21;2.85;;;1.52;;
62258;SDS011;48241;48.824;10.102;2023-04-03T13:04:48;2.97;;;1.77;;
62258;SDS011;48241;48.824;10.102;2023-04-03T13:07:18;3.03;;;1.73;;
62258;SDS011;48241;48.824;10.102;2023-04-03T13:09:55;2.88;;;1.67;;
62258;SDS011;48241;48.824;10.102;2023-04-03T13:12:21;2.75;;;1.52;;
62258;SDS011;48241;48.824;10.102;2023-04-03T13:14:54;4.90;;;1.85;;
62258;SDS011;48241;48.824;10.102;2023-04-03T13:17:26;5.00;;;1.98;;
62258;SDS011;48241;48.824;10.102;2023-04-03T13:19:52;3.50;;;1.98;;
62258;SDS011;48241;48.824;10.102;2023-04-03T13:22:38;3.05;;;1.67;;
62258;SDS011;48241;48.824;10.102;2023-04-03T13:25:13;2.53;;;1.67;;
62258;SDS011;48241;48.824;10.102;2023-04-03T13:27:40;3.30;;;2.00;;
62258;SDS011;48241;48.824;10.102;2023-04-03T13:30:20;3.30;;;1.77;;
62258;SDS011;48241;48.824;10.102;2023-04-03T13:32:49;3.13;;;1.67;;
62258;SDS011;48241;48.824;10.102;2023-04-03T13:40:49;3.97;;;1.65;;
62258;SDS011;48241;48.824;10.102;2023-04-03T14:58:23;2.05;;;1.40;;
62258;SDS011;48241;48.824;10.102;2023-04-03T15:00:48;2.83;;;1.63;;
62258;SDS011;48241;48.824;10.102;2023-04-03T15:03:20;4.05;;;1.55;;
62258;SDS011;48241;48.824;10.102;2023-04-03T15:06:14;5.00;;;1.58;;
62258;SDS011;48241;48.824;10.102;2023-04-03T15:08:41;3.88;;;1.83;;
62258;SDS011;48241;48.824;10.102;2023-04-03T15:11:11;3.50;;;1.60;;
62258;SDS011;48241;48.824;10.102;2023-04-03T15:13:45;2.22;;;1.65;;
62258;SDS011;48241;48.824;10.102;2023-04-03T15:16:12;3.88;;;1.70;;
62258;SDS011;48241;48.824;10.102;2023-04-03T15:18:44;3.35;;;1.60;;
62258;SDS011;48241;48.824;10.102;2023-04-03T15:21:11;2.72;;;1.40;;
62258;SDS011;48241;48.824;10.102;2023-04-03T15:23:43;3.75;;;1.67;;
62258;SDS011;48241;48.824;10.102;2023-04-03T15:26:09;3.42;;;1.48;;
62258;SDS011;48241;48.824;10.102;2023-04-03T15:28:38;5.38;;;1.60;;
62258;SDS011;48241;48.824;10.102;2023-04-03T15:31:06;2.88;;;1.75;;
62258;SDS011;48241;48.824;10.102;2023-04-03T15:33:32;3.30;;;1.77;;
62258;SDS011;48241;48.824;10.102;2023-04-03T15:35:59;3.05;;;1.75;;
62258;SDS011;48241;48.824;10.102;2023-04-03T15:38:25;3.03;;;1.73;;
62258;SDS011;48241;48.824;10.102;2023-04-03T15:40:51;2.88;;;1.60;;
62258;SDS011;48241;48.824;10.102;2023-04-03T15:43:32;2.88;;;1.42;;
62258;SDS011;48241;48.824;10.102;2023-04-03T15:46:52;2.67;;;1.58;;
62258;SDS011;48241;48.824;10.102;2023-04-03T15:49:46;4.22;;;2.10;;
62258;SDS011;48241;48.824;10.102;2023-04-03T16:13:05;3.53;;;1.60;;
62258;SDS011;48241;48.824;10.102;2023-04-03T16:15:34;2.67;;;1.77;;
62258;SDS011;48241;48.824;10.102;2023-04-03T16:28:13;2.40;;;1.50;;
62258;SDS011;48241;48.824;10.102;2023-04-03T18:04:22;2.45;;;1.70;;
62258;SDS011;48241;48.824;10.102;2023-04-03T19:37:48;4.43;;;2.40;;
62258;SDS011;48241;48.824;10.102;2023-04-03T19:40:17;5.55;;;2.70;;
62258;SDS011;48241;48.824;10.102;2023-04-03T19:42:43;3.05;;;1.75;;
62258;SDS011;48241;48.824;10.102;2023-04-03T19:45:10;3.75;;;2.30;;
62258;SDS011;48241;48.824;10.102;2023-04-03T19:47:37;7.55;;;2.35;;
62258;SDS011;48241;48.824;10.102;2023-04-03T19:50:06;3.55;;;1.88;;
62258;SDS011;48241;48.824;10.102;2023-04-03T19:52:32;3.05;;;1.40;;
62258;SDS011;48241;48.824;10.102;2023-04-03T19:54:57;3.75;;;1.48;;
62258;SDS011;48241;48.824;10.102;2023-04-03T19:57:23;2.33;;;1.30;;
62258;SDS011;48241;48.824;10.102;2023-04-03T19:59:48;2.85;;;1.27;;
62258;SDS011;48241;48.824;10.102;2023-04-03T20:02:14;3.67;;;1.58;;
62258;SDS011;48241;48.824;10.102;2023-04-03T20:04:42;2.55;;;1.50;;
62258;SDS011;48241;48.824;10.102;2023-04-03T20:07:09;4.28;;;1.75;;
62258;SDS011;48241;48.824;10.102;2023-04-03T20:09:35;3.17;;;1.50;;
62258;SDS011;48241;48.824;10.102;2023-04-03T20:12:00;4.18;;;1.80;;
62258;SDS011;48241;48.824;10.102;2023-04-03T20:14:27;2.97;;;1.35;;
62258;SDS011;48241;48.824;10.102;2023-04-03T20:16:53;3.25;;;1.35;;
62258;SDS011;48241;48.824;10.102;2023-04-03T20:21:52;3.88;;;1.20;;
62258;SDS011;48241;48.824;10.102;2023-04-03T20:24:18;3.13;;;1.33;;
62258;SDS011;48241;48.824;10.102;2023-04-03T20:26:43;3.53;;;1.50;;
62258;SDS011;48241;48.824;10.102;2023-04-03T20:29:11;2.42;;;1.10;;
62258;SDS011;48241;48.824;10.102;2023-04-03T20:31:39;2.75;;;1.38;;
62258;SDS011;48241;48.824;10.102;2023-04-03T20:34:06;6.38;;;1.48;;
62258;SDS011;48241;48.824;10.102;2023-04-03T20:36:32;3.53;;;1.25;;
62258;SDS011;48241;48.824;10.102;2023-04-03T20:38:58;2.38;;;1.40;;
62258;SDS011;48241;48.824;10.102;2023-04-03T20:41:24;3.15;;;1.60;;
62258;SDS011;48241;48.824;10.102;2023-04-03T20:43:50;2.40;;;1.23;;
62258;SDS011;48241;48.824;10.102;2023-04-03T20:46:15;2.28;;;1.15;;
62258;SDS011;48241;48.824;10.102;2023-04-03T20:48:45;2.60;;;1.23;;
62258;SDS011;48241;48.824;10.102;2023-04-03T20:51:15;4.45;;;1.50;;
62258;SDS011;48241;48.824;10.102;2023-04-03T20:53:43;3.47;;;1.27;;
62258;SDS011;48241;48.824;10.102;2023-04-03T20:56:09;2.20;;;1.33;;
62258;SDS011;48241;48.824;10.102;2023-04-03T20:58:35;2.83;;;1.50;;
62258;SDS011;48241;48.824;10.102;2023-04-03T21:01:03;2.75;;;1.48;;
62258;SDS011;48241;48.824;10.102;2023-04-03T21:03:48;2.35;;;1.45;;
62258;SDS011;48241;48.824;10.102;2023-04-03T21:20:47;5.13;;;2.22;;
62258;SDS011;48241;48.824;10.102;2023-04-03T21:23:13;4.22;;;1.55;;
62258;SDS011;48241;48.824;10.102;2023-04-03T21:25:39;4.53;;;2.00;;
62258;SDS011;48241;48.824;10.102;2023-04-03T21:28:05;3.65;;;1.63;;
62258;SDS011;48241;48.824;10.102;2023-04-03T21:30:31;2.60;;;1.60;;
62258;SDS011;48241;48.824;10.102;2023-04-03T21:32:57;3.40;;;1.50;;
62258;SDS011;48241;48.824;10.102;2023-04-03T21:35:22;3.72;;;2.00;;
62258;SDS011;48241;48.824;10.102;2023-04-03T21:37:48;3.80;;;1.65;;
62258;SDS011;48241;48.824;10.102;2023-04-03T21:40:14;2.30;;;1.50;;
62258;SDS011;48241;48.824;10.102;2023-04-03T21:42:40;3.58;;;1.60;;
62258;SDS011;48241;48.824;10.102;2023-04-03T21:45:06;4.13;;;1.83;;
62258;SDS011;48241;48.824;10.102;2023-04-03T21:47:32;4.15;;;1.77;;
62258;SDS011;48241;48.824;10.102;2023-04-03T21:49:59;2.60;;;1.63;;
62258;SDS011;48241;48.824;10.102;2023-04-03T21:52:25;4.57;;;1.88;;
62258;SDS011;48241;48.824;10.102;2023-04-03T21:54:51;2.17;;;1.60;;
62258;SDS011;48241;48.824;10.102;2023-04-03T21:57:16;3.55;;;1.35;;
62258;SDS011;48241;48.824;10.102;2023-04-03T21:59:42;3.92;;;2.10;;
62258;SDS011;48241;48.824;10.102;2023-04-03T22:02:09;2.40;;;1.60;;
62258;SDS011;48241;48.824;10.102;2023-04-03T22:04:35;6.13;;;1.98;;
62258;SDS011;48241;48.824;10.102;2023-04-03T22:07:00;6.38;;;1.10;;
62258;SDS011;48241;48.824;10.102;2023-04-03T22:09:27;3.30;;;1.67;;
62258;SDS011;48241;48.824;10.102;2023-04-03T22:11:53;4.03;;;1.70;;
62258;SDS011;48241;48.824;10.102;2023-04-03T22:14:19;2.83;;;1.17;;
62258;SDS011;48241;48.824;10.102;2023-04-03T22:16:45;3.25;;;2.20;;
62258;SDS011;48241;48.824;10.102;2023-04-03T22:19:11;3.33;;;1.75;;
62258;SDS011;48241;48.824;10.102;2023-04-03T22:21:38;2.95;;;1.80;;
62258;SDS011;48241;48.824;10.102;2023-04-03T22:24:07;2.95;;;1.75;;
62258;SDS011;48241;48.824;10.102;2023-04-03T22:26:33;2.70;;;1.60;;
62258;SDS011;48241;48.824;10.102;2023-04-03T22:28:59;2.05;;;1.08;;
62258;SDS011;48241;48.824;10.102;2023-04-03T22:31:25;4.45;;;2.22;;
62258;SDS011;48241;48.824;10.102;2023-04-03T22:33:51;3.85;;;2.10;;
62258;SDS011;48241;48.824;10.102;2023-04-03T22:36:18;3.28;;;1.77;;
62258;SDS011;48241;48.824;10.102;2023-04-03T22:38:44;4.78;;;2.45;;
62258;SDS011;48241;48.824;10.102;2023-04-03T22:41:11;3.00;;;1.85;;
62258;SDS011;48241;48.824;10.102;2023-04-03T22:43:37;3.65;;;1.85;;
62258;SDS011;48241;48.824;10.102;2023-04-03T22:46:06;3.58;;;2.33;;
62258;SDS011;48241;48.824;10.102;2023-04-03T22:48:33;5.78;;;2.13;;
62258;SDS011;48241;48.824;10.102;2023-04-03T22:50:59;3.80;;;1.65;;
62258;SDS011;48241;48.824;10.102;2023-04-03T22:53:25;5.30;;;1.98;;
62258;SDS011;48241;48.824;10.102;2023-04-03T22:55:58;2.35;;;1.63;;
62258;SDS011;48241;48.824;10.102;2023-04-03T22:58:25;4.43;;;1.42;;
62258;SDS011;48241;48.824;10.102;2023-04-03T23:00:55;5.32;;;1.80;;
62258;SDS011;48241;48.824;10.102;2023-04-03T23:03:28;2.50;;;1.92;;
62258;SDS011;48241;48.824;10.102;2023-04-03T23:05:53;3.53;;;2.15;;
62258;SDS011;48241;48.824;10.102;2023-04-03T23:08:20;3.03;;;1.95;;
62258;SDS011;48241;48.824;10.102;2023-04-03T23:10:45;4.05;;;2.20;;
62258;SDS011;48241;48.824;10.102;2023-04-03T23:13:11;3.13;;;1.83;;
62258;SDS011;48241;48.824;10.102;2023-04-03T23:15:37;3.97;;;2.00;;
62258;SDS011;48241;48.824;10.102;2023-04-03T23:18:02;5.28;;;1.80;;
62258;SDS011;48241;48.824;10.102;2023-04-03T23:20:28;3.72;;;1.80;;
62258;SDS011;48241;48.824;10.102;2023-04-03T23:22:54;4.28;;;2.33;;
62258;SDS011;48241;48.824;10.102;2023-04-03T23:25:19;2.83;;;1.55;;
62258;SDS011;48241;48.824;10.102;2023-04-03T23:27:52;3.88;;;1.92;;
62258;SDS011;48241;48.824;10.102;2023-04-03T23:30:18;3.60;;;2.42;;
62258;SDS011;48241;48.824;10.102;2023-04-03T23:32:45;3.85;;;2.00;;
62258;SDS011;48241;48.824;10.102;2023-04-03T23:35:11;3.03;;;2.15;;
62258;SDS011;48241;48.824;10.102;2023-04-03T23:37:36;3.53;;;2.20;;
62258;SDS011;48241;48.824;10.102;2023-04-03T23:40:02;4.93;;;2.10;;
62258;SDS011;48241;48.824;10.102;2023-04-03T23:42:28;2.72;;;1.75;;
62258;SDS011;48241;48.824;10.102;2023-04-03T23:44:53;4.00;;;2.17;;
62258;SDS011;48241;48.824;10.102;2023-04-03T23:47:19;4.82;;;2.00;;
62258;SDS011;48241;48.824;10.102;2023-04-03T23:49:45;3.80;;;2.40;;
62258;SDS011;48241;48.824;10.102;2023-04-03T23:52:10;4.53;;;2.05;;
62258;SDS011;48241;48.824;10.102;2023-04-03T23:54:36;3.03;;;1.27;;
62258;SDS011;48241;48.824;10.102;2023-04-03T23:57:02;4.40;;;2.13;;
62258;SDS011;48241;48.824;10.102;2023-04-03T23:59:27;4.88;;;1.58;;
